Time;durP1;ratioP1;P1;durP2;ratioP2;P2;SDS_P1;SDS_P2;PMS_P1;PMS_P2;Temp;Humidity;BMP_temperature;BMP_pressure;BME280_temperature;BME280_humidity;BME280_pressure;Samples;Min_cycle;Max_cycle;Signal;HPM_P1;HPM_P2
2023/02/03 00:01:53;;;;;;;6.97;3.20;;;;;;;3.64;100.00;101234.09;7386303;19;20414;-50
2023/02/03 00:04:22;;;;;;;5.87;3.63;;;;;;;3.65;100.00;101224.00;7396043;19;20475;-51
2023/02/03 00:06:52;;;;;;;8.40;4.70;;;;;;;3.71;100.00;101236.34;7392539;19;20407;-49
2023/02/03 00:09:22;;;;;;;8.17;4.63;;;;;;;3.73;100.00;101216.03;7396689;19;20380;-50
2023/02/03 00:11:54;;;;;;;5.87;3.70;;;;;;;3.75;100.00;101201.75;7393261;19;20431;-50
2023/02/03 00:14:23;;;;;;;8.43;5.10;;;;;;;3.80;100.00;101171.44;7396819;19;20392;-48
2023/02/03 00:16:53;;;;;;;9.20;4.83;;;;;;;3.82;100.00;101155.47;7391902;19;20427;-49
2023/02/03 00:19:22;;;;;;;10.73;5.83;;;;;;;3.87;100.00;101122.63;7394926;19;20391;-49
2023/02/03 00:21:51;;;;;;;11.93;5.47;;;;;;;3.88;100.00;101084.47;7392640;19;20974;-49
2023/02/03 00:24:22;;;;;;;11.20;6.60;;;;;;;3.95;100.00;101075.56;7396095;19;20391;-50
2023/02/03 00:26:54;;;;;;;9.80;5.70;;;;;;;3.99;100.00;101040.97;7392401;19;20406;-49
2023/02/03 00:29:24;;;;;;;12.87;7.00;;;;;;;4.03;100.00;101032.72;7396129;19;20419;-47
2023/02/03 00:31:54;;;;;;;9.07;5.07;;;;;;;4.11;100.00;101016.28;7392895;19;20411;-48
2023/02/03 00:34:24;;;;;;;9.60;5.40;;;;;;;4.18;100.00;101007.41;7395506;19;20412;-54
2023/02/03 00:36:53;;;;;;;13.63;7.67;;;;;;;4.20;100.00;100987.97;7391541;19;20399;-48
2023/02/03 00:39:23;;;;;;;12.10;6.37;;;;;;;4.25;100.00;100978.09;7394171;19;20402;-50
2023/02/03 00:41:55;;;;;;;7.83;4.50;;;;;;;4.38;100.00;100967.06;7392037;19;20431;-49
2023/02/03 00:44:24;;;;;;;11.40;5.47;;;;;;;4.49;100.00;100932.03;7400151;19;20392;-48
2023/02/03 00:46:54;;;;;;;12.10;6.40;;;;;;;4.57;100.00;100939.44;7391219;19;20431;-47
2023/02/03 00:49:23;;;;;;;12.97;7.17;;;;;;;4.61;100.00;100911.56;7396605;19;20416;-48
2023/02/03 00:51:53;;;;;;;14.87;7.90;;;;;;;4.70;100.00;100907.97;7391708;19;20415;-52
2023/02/03 00:54:22;;;;;;;11.97;5.60;;;;;;;4.78;100.00;100892.25;7395331;19;20404;-48
2023/02/03 00:56:54;;;;;;;13.87;7.33;;;;;;;4.87;100.00;100874.97;7391484;19;20422;-50
2023/02/03 00:59:24;;;;;;;11.80;4.90;;;;;;;4.98;100.00;100857.78;7394616;19;20914;-48
2023/02/03 01:01:53;;;;;;;11.30;4.97;;;;;;;5.06;100.00;100850.59;7391779;19;20874;-48
2023/02/03 01:04:23;;;;;;;15.77;7.53;;;;;;;5.10;100.00;100821.91;7395156;19;20381;-48
2023/02/03 01:06:55;;;;;;;6.53;3.63;;;;;;;5.13;100.00;100825.53;7391141;19;20408;-48
2023/02/03 01:09:24;;;;;;;14.97;5.87;;;;;;;5.23;100.00;100809.09;7394960;19;20385;-49
2023/02/03 01:11:56;;;;;;;15.50;7.83;;;;;;;5.27;100.00;100807.63;7391433;19;20438;-50
2023/02/03 01:14:25;;;;;;;17.63;9.13;;;;;;;5.32;100.00;100792.59;7394852;19;20397;-48
2023/02/03 01:16:55;;;;;;;11.10;4.60;;;;;;;5.36;100.00;100784.31;7390448;19;20416;-48
2023/02/03 01:19:26;;;;;;;23.83;11.23;;;;;;;5.42;100.00;100777.00;7393755;19;20389;-48
2023/02/03 01:21:55;;;;;;;19.77;8.13;;;;;;;5.44;100.00;100767.75;7390624;19;20422;-48
2023/02/03 01:24:24;;;;;;;18.23;8.33;;;;;;;5.49;100.00;100756.13;7394403;19;20389;-50
2023/02/03 01:26:56;;;;;;;25.30;10.13;;;;;;;5.52;100.00;100746.09;7390257;19;20794;-48
2023/02/03 01:29:26;;;;;;;30.10;10.50;;;;;;;5.54;100.00;100739.38;7394332;19;20384;-51
2023/02/03 01:31:55;;;;;;;24.17;7.63;;;;;;;5.56;100.00;100731.81;7391946;19;20422;-49
2023/02/03 01:34:25;;;;;;;22.90;8.80;;;;;;;5.61;100.00;100729.53;7393545;19;20423;-48
2023/02/03 01:36:54;;;;;;;39.73;11.40;;;;;;;5.64;100.00;100715.25;7389926;19;20430;-47
2023/02/03 01:39:25;;;;;;;28.60;10.00;;;;;;;5.68;100.00;100698.38;7393298;19;20943;-48
2023/02/03 01:41:57;;;;;;;21.00;6.90;;;;;;;5.65;100.00;100693.09;7390316;19;20437;-47
2023/02/03 01:44:41;;;;;;;20.20;8.83;;;;;;;5.66;100.00;100685.50;7393976;19;20413;-48
2023/02/03 01:47:19;;;;;;;11.50;5.67;;;;;;;5.69;100.00;100692.47;7389687;19;20437;-47
2023/02/03 01:49:51;;;;;;;18.73;5.43;;;;;;;5.67;100.00;100689.84;7397780;19;20392;-49
2023/02/03 01:52:21;;;;;;;19.27;8.00;;;;;;;5.66;100.00;100697.44;7390338;19;20758;-51
2023/02/03 01:54:51;;;;;;;17.73;8.07;;;;;;;5.65;100.00;100717.00;7394763;19;20505;-50
2023/02/03 01:57:26;;;;;;;14.53;5.33;;;;;;;5.68;100.00;100716.31;7390769;19;20961;-49
2023/02/03 01:59:57;;;;;;;17.53;7.77;;;;;;;5.67;100.00;100718.00;7393419;19;20381;-50
2023/02/03 02:02:26;;;;;;;17.50;5.47;;;;;;;5.69;100.00;100723.19;7391184;19;20426;-49
2023/02/03 02:05:03;;;;;;;17.30;5.80;;;;;;;5.71;100.00;100729.31;7394125;19;20422;-50
2023/02/03 02:07:33;;;;;;;14.03;4.63;;;;;;;5.73;100.00;100742.19;7389018;19;20443;-51
2023/02/03 02:10:03;;;;;;;11.70;5.27;;;;;;;5.74;100.00;100759.34;7392939;19;20389;-49
2023/02/03 02:12:35;;;;;;;12.33;5.63;;;;;;;5.74;100.00;100808.84;7389884;19;20502;-54
2023/02/03 02:15:04;;;;;;;15.47;5.37;;;;;;;5.70;100.00;100853.00;7392800;19;20414;-49
2023/02/03 02:17:57;;;;;;;14.87;4.97;;;;;;;5.73;100.00;100909.50;7387855;19;20412;-54
2023/02/03 02:21:01;;;;;;;14.10;6.20;;;;;;;5.66;100.00;100974.78;7388158;19;20392;-51
2023/02/03 02:23:43;;;;;;;8.83;5.07;;;;;;;5.70;100.00;101033.88;7390565;19;20405;-50
2023/02/03 02:26:36;;;;;;;10.43;3.10;;;;;;;5.66;100.00;101060.94;7386889;19;20428;-49
2023/02/03 02:29:33;;;;;;;14.47;5.87;;;;;;;5.66;100.00;101058.41;7390413;19;20437;-51
2023/02/03 02:32:12;;;;;;;21.93;5.23;;;;;;;5.67;100.00;101060.16;7391402;19;20457;-53
2023/02/03 02:34:50;;;;;;;11.50;5.10;;;;;;;5.66;100.00;101056.69;7394525;19;20392;-54
2023/02/03 02:37:26;;;;;;;11.37;4.43;;;;;;;5.66;100.00;101056.69;7389488;19;20437;-48
2023/02/03 02:39:59;;;;;;;8.60;5.07;;;;;;;5.65;100.00;101066.88;7394683;19;20429;-53
2023/02/03 02:42:34;;;;;;;11.50;6.10;;;;;;;5.67;100.00;101060.16;7391662;19;20465;-54
2023/02/03 02:45:09;;;;;;;12.60;6.40;;;;;;;5.67;100.00;101080.66;7395290;19;20932;-54
2023/02/03 02:47:42;;;;;;;11.03;4.30;;;;;;;5.71;100.00;101089.41;7389664;19;20475;-53
2023/02/03 02:50:16;;;;;;;12.00;5.23;;;;;;;5.71;100.00;101074.97;7395784;19;20417;-51
2023/02/03 02:52:47;;;;;;;9.73;3.40;;;;;;;5.67;100.00;101075.53;7394224;19;20791;-52
2023/02/03 02:55:23;;;;;;;10.50;2.03;;;;;;;5.70;100.00;101078.31;7395089;19;20409;-54
2023/02/03 02:57:53;;;;;;;12.30;4.10;;;;;;;5.72;100.00;101066.47;7393520;19;20447;-54
2023/02/03 03:00:23;;;;;;;12.03;3.67;;;;;;;5.77;100.00;101065.13;7390453;19;20750;-49
2023/02/03 03:02:56;;;;;;;4.33;2.70;;;;;;;5.76;100.00;101073.59;7394083;19;20421;-53
2023/02/03 03:05:26;;;;;;;15.47;4.50;;;;;;;5.79;100.00;101063.53;7390439;19;20406;-52
2023/02/03 03:07:58;;;;;;;12.13;4.77;;;;;;;5.81;100.00;101073.88;7393963;19;20404;-54
2023/02/03 03:10:29;;;;;;;9.53;3.50;;;;;;;5.82;100.00;101065.41;7391073;19;20740;-52
2023/02/03 03:13:02;;;;;;;14.93;3.70;;;;;;;5.84;100.00;101057.84;7393636;19;20397;-49
2023/02/03 03:15:33;;;;;;;11.20;3.83;;;;;;;5.88;100.00;101054.69;7389661;19;20407;-54
2023/02/03 03:18:08;;;;;;;12.73;6.03;;;;;;;5.88;100.00;101041.88;7394444;19;20409;-55
2023/02/03 03:20:39;;;;;;;13.27;4.00;;;;;;;5.89;100.00;101048.78;7389704;19;20789;-49
2023/02/03 03:23:09;;;;;;;11.70;3.40;;;;;;;5.92;100.00;101059.22;7394410;19;20404;-52
2023/02/03 03:25:42;;;;;;;10.47;3.33;;;;;;;5.95;100.00;101062.00;7389622;19;20754;-50
2023/02/03 03:28:14;;;;;;;7.53;2.63;;;;;;;5.96;100.00;101071.47;7394841;19;20444;-54
2023/02/03 03:30:44;;;;;;;6.33;3.30;;;;;;;5.93;100.00;101072.13;7389359;19;20417;-49
2023/02/03 03:33:16;;;;;;;3.43;1.70;;;;;;;5.90;100.00;101071.91;7394686;19;20400;-53
2023/02/03 03:35:50;;;;;;;8.67;3.07;;;;;;;5.93;100.00;101058.44;7388644;19;20429;-53
2023/02/03 03:38:23;;;;;;;10.90;2.70;;;;;;;5.93;100.00;101082.38;7397894;19;21335;-49
2023/02/03 03:40:56;;;;;;;10.80;3.10;;;;;;;5.98;100.00;101075.00;7396381;19;20759;-55
2023/02/03 03:43:28;;;;;;;11.20;3.50;;;;;;;5.99;100.00;101087.00;7400785;19;20419;-52
2023/02/03 03:46:02;;;;;;;4.73;2.07;;;;;;;5.97;100.00;101091.16;7395787;19;20441;-53
2023/02/03 03:48:36;;;;;;;3.50;2.50;;;;;;;5.92;100.00;101107.88;7400369;19;20401;-52
2023/02/03 03:51:10;;;;;;;14.77;2.57;;;;;;;5.92;100.00;101105.31;7396711;19;20428;-50
2023/02/03 03:53:41;;;;;;;10.70;3.43;;;;;;;5.88;100.00;101104.25;7399257;19;20398;-55
2023/02/03 03:56:15;;;;;;;7.77;2.40;;;;;;;5.84;100.00;101111.63;7394427;19;20433;-52
2023/02/03 03:58:46;;;;;;;12.93;2.43;;;;;;;5.87;100.00;101106.69;7400730;19;20433;-53
2023/02/03 04:01:17;;;;;;;14.27;4.07;;;;;;;5.92;100.00;101101.09;7397160;19;20447;-54
2023/02/03 04:03:51;;;;;;;14.40;3.50;;;;;;;5.90;100.00;101104.34;7399705;19;20393;-50
2023/02/03 04:06:21;;;;;;;11.97;3.93;;;;;;;5.87;100.00;101091.31;7395038;19;20467;-53
2023/02/03 04:08:50;;;;;;;8.80;3.07;;;;;;;5.86;100.00;101076.75;7400538;19;20432;-51
2023/02/03 04:14:01;;;;;;;14.20;3.90;;;;;;;5.73;100.00;101087.84;7398205;19;20410;-51
2023/02/03 04:16:31;;;;;;;5.10;2.17;;;;;;;5.68;100.00;101078.19;7393385;19;20471;-52
2023/02/03 04:19:03;;;;;;;8.57;2.13;;;;;;;5.64;100.00;101062.53;7399347;19;20485;-53
2023/02/03 04:21:36;;;;;;;10.87;3.13;;;;;;;5.66;100.00;101037.91;7395798;19;20443;-50
2023/02/03 04:24:06;;;;;;;13.27;3.40;;;;;;;5.64;100.00;101019.00;7398766;19;20923;-50
2023/02/03 04:26:35;;;;;;;9.57;3.60;;;;;;;5.64;100.00;101021.56;7394322;19;20464;-49
2023/02/03 04:29:05;;;;;;;8.17;3.03;;;;;;;5.63;100.00;100994.16;7399178;19;20396;-50
2023/02/03 04:31:34;;;;;;;11.00;4.00;;;;;;;5.62;100.00;100992.41;7395936;19;20444;-50
2023/02/03 04:34:07;;;;;;;10.30;4.50;;;;;;;5.65;100.00;100960.22;7398116;19;20426;-49
2023/02/03 04:36:36;;;;;;;16.17;4.07;;;;;;;5.64;100.00;100955.00;7392953;19;20448;-51
2023/02/03 04:39:06;;;;;;;6.90;2.47;;;;;;;5.64;100.00;100952.44;7398688;19;20422;-49
2023/02/03 04:41:35;;;;;;;10.07;3.93;;;;;;;5.66;100.00;100943.19;7394421;19;20450;-51
2023/02/03 04:44:05;;;;;;;16.70;3.80;;;;;;;5.68;100.00;100936.47;7399256;19;20934;-49
2023/02/03 04:46:34;;;;;;;11.20;3.50;;;;;;;5.68;100.00;100931.38;7392082;19;20460;-48
2023/02/03 04:49:08;;;;;;;10.80;3.97;;;;;;;5.71;100.00;100920.44;7397749;19;20944;-51
2023/02/03 04:51:38;;;;;;;7.30;3.07;;;;;;;5.66;100.00;100927.81;7393861;19;20447;-52
2023/02/03 04:54:07;;;;;;;8.83;3.70;;;;;;;5.65;100.00;100920.94;7399232;19;20404;-50
2023/02/03 04:56:36;;;;;;;15.73;4.50;;;;;;;5.67;100.00;100909.13;7392293;19;20463;-51
2023/02/03 04:59:06;;;;;;;6.20;2.80;;;;;;;5.63;100.00;100899.44;7398811;19;20399;-51
2023/02/03 05:01:36;;;;;;;7.73;2.77;;;;;;;5.62;100.00;100900.25;7392862;19;20428;-49
2023/02/03 05:04:08;;;;;;;9.30;3.70;;;;;;;5.60;100.00;100881.34;7398533;19;20404;-50
2023/02/03 05:06:37;;;;;;;10.47;5.43;;;;;;;5.62;100.00;100862.75;7392016;19;20986;-50
2023/02/03 05:09:07;;;;;;;10.73;5.40;;;;;;;5.62;100.00;100866.97;7398908;19;21136;-48
2023/02/03 05:11:37;;;;;;;12.20;5.00;;;;;;;5.60;100.00;100860.88;7393632;19;20431;-50
2023/02/03 05:14:07;;;;;;;7.63;4.27;;;;;;;5.61;100.00;100857.53;7398150;19;20423;-49
2023/02/03 05:16:36;;;;;;;14.63;6.07;;;;;;;5.61;100.00;100842.16;7390120;19;20463;-52
2023/02/03 05:19:08;;;;;;;5.40;3.60;;;;;;;5.61;100.00;100831.94;7398264;19;20511;-50
2023/02/03 05:21:38;;;;;;;12.73;4.37;;;;;;;5.60;100.00;100838.75;7391520;19;20470;-48
2023/02/03 05:24:08;;;;;;;9.13;4.60;;;;;;;5.60;100.00;100835.28;7398123;19;20436;-51
2023/02/03 05:26:37;;;;;;;12.70;5.40;;;;;;;5.59;100.00;100836.94;7392031;19;20465;-50
2023/02/03 05:29:07;;;;;;;10.23;4.93;;;;;;;5.60;100.00;100832.72;7397922;19;20408;-49
2023/02/03 05:31:36;;;;;;;9.47;5.63;;;;;;;5.58;100.00;100836.88;7392286;19;20449;-52
2023/02/03 05:34:09;;;;;;;13.30;5.10;;;;;;;5.60;100.00;100835.28;7397372;19;20404;-51
2023/02/03 05:36:38;;;;;;;10.10;5.37;;;;;;;5.58;100.00;100821.50;7390182;19;20463;-52
2023/02/03 05:39:07;;;;;;;11.00;5.80;;;;;;;5.60;100.00;100827.59;7397680;19;20404;-48
2023/02/03 05:44:19;;;;;;;3.70;2.67;;;;;;;5.60;100.00;100819.91;7397997;19;20402;-52
2023/02/03 05:46:48;;;;;;;6.20;2.50;;;;;;;5.58;100.00;100801.91;7390420;19;20445;-48
2023/02/03 05:49:22;;;;;;;11.43;4.67;;;;;;;5.60;100.00;100804.56;7397528;19;20410;-50
2023/02/03 05:51:52;;;;;;;12.07;4.30;;;;;;;5.60;100.00;100809.69;7391750;19;20439;-50
2023/02/03 05:54:22;;;;;;;6.43;3.00;;;;;;;5.57;100.00;100814.59;7395995;19;20410;-49
2023/02/03 05:56:51;;;;;;;9.80;4.70;;;;;;;5.55;100.00;100794.03;7390801;19;20471;-51
2023/02/03 05:59:21;;;;;;;9.03;4.33;;;;;;;5.57;100.00;100774.53;7396454;19;20406;-51
2023/02/03 06:01:50;;;;;;;8.13;2.90;;;;;;;5.54;100.00;100769.25;7389898;19;20475;-55
2023/02/03 06:04:22;;;;;;;7.50;2.97;;;;;;;5.54;100.00;100759.88;7397812;19;20396;-54
2023/02/03 06:06:52;;;;;;;7.53;2.20;;;;;;;5.53;100.00;100737.63;7391273;19;20448;-55
2023/02/03 06:09:21;;;;;;;9.97;4.10;;;;;;;5.56;100.00;100736.03;7396221;19;20400;-54
2023/02/03 06:11:51;;;;;;;8.30;3.97;;;;;;;5.54;100.00;100718.91;7392453;19;20424;-57
2023/02/03 06:14:20;;;;;;;5.30;3.07;;;;;;;5.49;100.00;100676.78;7398363;19;20404;-53
2023/02/03 06:16:50;;;;;;;11.37;4.67;;;;;;;5.47;100.00;100657.00;7389538;19;20459;-52
2023/02/03 06:19:22;;;;;;;9.23;3.20;;;;;;;5.46;100.00;100638.22;7397607;19;20400;-54
2023/02/03 06:21:51;;;;;;;11.50;4.80;;;;;;;5.49;100.00;100606.81;7391502;19;20445;-54
2023/02/03 06:24:20;;;;;;;8.57;3.23;;;;;;;5.49;100.00;100594.91;7397571;19;20403;-50
2023/02/03 06:26:50;;;;;;;12.93;4.27;;;;;;;5.50;100.00;100557.41;7391100;19;20462;-55
2023/02/03 06:29:19;;;;;;;4.70;2.33;;;;;;;5.50;100.00;100571.06;7397355;19;20419;-54
2023/02/03 06:31:49;;;;;;;12.23;4.50;;;;;;;5.54;100.00;100555.09;7392146;19;20439;-55
2023/02/03 06:34:21;;;;;;;16.20;4.43;;;;;;;5.54;100.00;100536.34;7397464;19;20475;-53
2023/02/03 06:36:50;;;;;;;20.00;4.67;;;;;;;5.56;100.00;100513.34;7389630;19;20467;-55
2023/02/03 06:39:20;;;;;;;8.33;2.60;;;;;;;5.57;100.00;100471.59;7396833;19;20401;-56
2023/02/03 06:41:50;;;;;;;6.63;3.73;;;;;;;5.60;100.00;100461.56;7391335;19;20428;-55
2023/02/03 06:44:20;;;;;;;14.23;3.20;;;;;;;5.61;100.00;100458.19;7396734;19;20424;-55
2023/02/03 06:46:49;;;;;;;8.23;2.90;;;;;;;5.64;100.00;100450.72;7390830;19;20468;-54
2023/02/03 06:49:21;;;;;;;12.23;3.50;;;;;;;5.66;100.00;100420.97;7397338;19;20413;-58
2023/02/03 06:51:51;;;;;;;6.03;2.50;;;;;;;5.70;100.00;100402.44;7392751;19;20436;-56
2023/02/03 06:54:20;;;;;;;14.23;4.83;;;;;;;5.72;100.00;100405.06;7398376;19;20435;-54
2023/02/03 06:56:50;;;;;;;9.10;4.00;;;;;;;5.74;100.00;100373.63;7391245;19;20444;-54
2023/02/03 06:59:19;;;;;;;21.70;5.87;;;;;;;5.76;100.00;100372.03;7397633;19;20416;-55
2023/02/03 07:01:48;;;;;;;18.60;4.37;;;;;;;5.81;100.00;100375.72;7391697;19;20437;-57
2023/02/03 07:04:18;;;;;;;19.63;4.00;;;;;;;5.77;100.00;100414.78;7397677;19;21163;-53
2023/02/03 07:06:50;;;;;;;14.63;2.97;;;;;;;5.81;100.00;100337.31;7389370;19;20433;-55
2023/02/03 07:09:20;;;;;;;14.80;3.80;;;;;;;5.86;100.00;100173.72;7397133;19;20778;-53
2023/02/03 07:11:49;;;;;;;10.97;2.70;;;;;;;5.91;100.00;100130.41;7391418;19;20461;-54
2023/02/03 07:14:19;;;;;;;9.90;2.63;;;;;;;5.92;100.00;100091.19;7397280;19;20777;-53
2023/02/03 07:16:48;;;;;;;21.43;4.83;;;;;;;5.94;100.00;100080.22;7389398;19;20441;-56
2023/02/03 07:19:17;;;;;;;19.30;3.47;;;;;;;5.94;100.00;100066.53;7396875;19;20394;-53
2023/02/03 07:21:47;;;;;;;8.80;2.50;;;;;;;5.93;100.00;100075.03;7390748;19;20457;-57
2023/02/03 07:24:19;;;;;;;16.43;3.67;;;;;;;5.94;100.00;100056.28;7395680;19;20405;-56
2023/02/03 07:26:49;;;;;;;13.87;3.00;;;;;;;5.92;100.00;100037.41;7389697;19;20469;-56
2023/02/03 07:29:18;;;;;;;10.23;3.33;;;;;;;5.92;100.00;100060.47;7396535;19;20404;-56
2023/02/03 07:31:48;;;;;;;11.73;3.80;;;;;;;5.92;100.00;100050.22;7391336;19;20508;-55
2023/02/03 07:34:17;;;;;;;11.13;3.57;;;;;;;5.94;100.00;100015.31;7396263;19;20411;-55
2023/02/03 07:36:47;;;;;;;21.13;4.10;;;;;;;5.95;100.00;100029.91;7388950;19;20475;-57
2023/02/03 07:39:19;;;;;;;12.53;2.53;;;;;;;5.94;100.00;100034.13;7396202;19;20405;-57
2023/02/03 07:41:48;;;;;;;9.27;2.70;;;;;;;5.98;100.00;100037.72;7389971;19;20420;-57
2023/02/03 07:44:18;;;;;;;20.70;4.20;;;;;;;5.97;100.00;100038.53;7392890;19;20406;-58
2023/02/03 07:46:47;;;;;;;13.83;2.77;;;;;;;6.00;100.00;100060.84;7388344;19;20847;-59
2023/02/03 07:49:16;;;;;;;13.23;3.70;;;;;;;6.01;100.00;100047.25;7395497;19;20907;-58
2023/02/03 07:51:46;;;;;;;13.30;3.83;;;;;;;5.99;100.00;100057.41;7389652;19;20441;-54
2023/02/03 07:54:16;;;;;;;9.33;2.70;;;;;;;5.98;100.00;100090.59;7394963;19;20415;-57
2023/02/03 07:56:48;;;;;;;7.40;2.43;;;;;;;5.98;100.00;100065.00;7387846;19;20449;-56
2023/02/03 07:59:18;;;;;;;12.60;3.10;;;;;;;5.93;100.00;100075.03;7396222;19;20400;-58
2023/02/03 08:01:47;;;;;;;11.60;2.77;;;;;;;5.71;100.00;100132.84;7390687;19;20476;-58
2023/02/03 08:04:17;;;;;;;14.23;2.30;;;;;;;5.22;100.00;100129.47;7394168;19;20783;-58
2023/02/03 08:06:46;;;;;;;14.40;2.13;;;;;;;4.93;100.00;100122.78;7389320;19;20994;-57
2023/02/03 08:09:16;;;;;;;9.53;1.73;;;;;;;4.60;100.00;100113.34;7395250;19;20395;-57
2023/02/03 08:11:48;;;;;;;18.50;2.33;;;;;;;4.49;100.00;100160.38;7390070;19;20787;-57
2023/02/03 08:14:17;;;;;;;12.07;2.37;;;;;;;4.51;100.00;100148.59;7394818;19;20397;-59
2023/02/03 08:16:47;;;;;;;10.20;2.13;;;;;;;4.61;100.00;100135.53;7385852;19;21022;-57
2023/02/03 08:19:16;;;;;;;14.87;2.63;;;;;;;4.76;100.00;100145.72;7394218;19;20422;-56
2023/02/03 08:21:46;;;;;;;12.67;3.00;;;;;;;4.95;100.00;100146.75;7388150;19;20456;-54
2023/02/03 08:24:15;;;;;;;19.83;3.83;;;;;;;5.06;100.00;100165.22;7394711;19;20412;-55
2023/02/03 08:26:47;;;;;;;26.27;3.47;;;;;;;5.12;100.00;100170.66;7393639;19;20974;-57
2023/02/03 08:29:16;;;;;;;26.90;4.50;;;;;;;5.21;100.00;100160.06;7400697;19;20428;-58
2023/02/03 08:31:46;;;;;;;26.23;4.10;;;;;;;5.23;100.00;100159.34;7395475;19;20528;-55
2023/02/03 08:34:16;;;;;;;20.23;3.57;;;;;;;5.25;100.00;100175.69;7399918;19;20404;-57
2023/02/03 08:36:45;;;;;;;28.93;4.77;;;;;;;5.26;100.00;100127.94;7393448;19;20460;-55
2023/02/03 08:39:15;;;;;;;25.20;4.10;;;;;;;5.27;100.00;100191.97;7399209;19;20440;-56
2023/02/03 08:41:44;;;;;;;33.20;5.30;;;;;;;5.26;100.00;100185.13;7395670;19;20436;-57
2023/02/03 08:44:17;;;;;;;31.07;4.87;;;;;;;5.27;100.00;100171.53;7399041;19;20932;-54
2023/02/03 08:46:46;;;;;;;41.60;5.20;;;;;;;5.25;100.00;100170.56;7393856;19;20432;-58
2023/02/03 08:49:16;;;;;;;32.20;5.77;;;;;;;5.25;100.00;100173.13;7400521;19;20412;-53
2023/02/03 08:51:46;;;;;;;29.03;7.23;;;;;;;5.25;100.00;100192.69;7394568;19;20445;-57
2023/02/03 08:54:16;;;;;;;34.40;6.53;;;;;;;5.25;100.00;100167.13;7400469;19;20414;-57
2023/02/03 08:56:46;;;;;;;28.23;5.60;;;;;;;5.20;100.00;100154.09;7393013;19;20464;-55
2023/02/03 08:59:19;;;;;;;23.33;5.20;;;;;;;5.19;100.00;100182.13;7400482;19;20409;-52
2023/02/03 09:01:48;;;;;;;37.57;5.80;;;;;;;5.17;100.00;100199.94;7394729;19;20445;-57
2023/02/03 09:04:23;;;;;;;36.30;4.70;;;;;;;5.15;100.00;100183.63;7398698;19;20378;-54
2023/02/03 09:06:53;;;;;;;28.70;4.37;;;;;;;5.09;100.00;100221.66;7392879;19;20470;-56
2023/02/03 09:09:24;;;;;;;24.20;4.87;;;;;;;5.07;100.00;100213.91;7397923;19;20401;-58
2023/02/03 09:11:54;;;;;;;29.63;5.53;;;;;;;5.06;100.00;100239.38;7394205;19;20448;-53
2023/02/03 09:14:28;;;;;;;37.23;4.47;;;;;;;5.04;100.00;100226.53;7397853;19;20941;-56
2023/02/03 09:16:57;;;;;;;35.37;4.70;;;;;;;5.03;100.00;100247.75;7390611;19;20541;-55
2023/02/03 09:19:27;;;;;;;47.33;6.57;;;;;;;5.06;100.00;100270.06;7397684;19;20473;-56
2023/02/03 09:21:56;;;;;;;48.73;5.80;;;;;;;5.06;100.00;100300.75;7388677;19;20436;-57
2023/02/03 09:24:26;;;;;;;43.07;6.57;;;;;;;5.07;100.00;100310.22;7395795;19;20448;-55
2023/02/03 09:26:55;;;;;;;44.77;6.40;;;;;;;5.08;100.00;100383.59;7391533;19;20452;-58
2023/02/03 09:29:27;;;;;;;43.03;5.33;;;;;;;5.10;100.00;100484.28;7396988;19;20408;-56
2023/02/03 09:31:57;;;;;;;31.70;4.10;;;;;;;5.11;100.00;100578.13;7393428;19;20460;-54
2023/02/03 09:34:26;;;;;;;44.07;5.93;;;;;;;5.13;100.00;100743.69;7397187;19;20799;-56
2023/02/03 09:36:55;;;;;;;38.60;5.23;;;;;;;5.16;100.00;100863.22;7390033;19;20450;-55
2023/02/03 09:39:25;;;;;;;40.50;7.60;;;;;;;5.17;100.00;100911.03;7393258;19;20463;-52
2023/02/03 09:42:06;;;;;;;38.50;5.47;;;;;;;5.17;100.00;100951.97;7388339;19;20449;-56
2023/02/03 09:44:45;;;;;;;35.17;6.00;;;;;;;5.19;100.00;100976.00;7391480;19;20426;-57
2023/02/03 09:47:16;;;;;;;45.37;5.67;;;;;;;5.16;100.00;101021.81;7386456;19;20439;-53
2023/02/03 09:49:49;;;;;;;43.13;6.60;;;;;;;5.15;100.00;101050.75;7392294;19;20787;-57
2023/02/03 09:52:21;;;;;;;38.47;6.73;;;;;;;5.15;100.00;101063.53;7388897;19;20445;-54
2023/02/03 09:54:55;;;;;;;49.43;5.97;;;;;;;5.12;100.00;101082.13;7392355;19;20422;-53
2023/02/03 09:57:26;;;;;;;34.80;6.20;;;;;;;5.16;100.00;101108.81;7384967;19;20440;-59
2023/02/03 10:00:00;;;;;;;54.47;7.30;;;;;;;5.17;100.00;101135.28;7390040;19;21002;-58
2023/02/03 10:02:47;;;;;;;52.00;7.00;;;;;;;5.17;100.00;101145.53;7388428;19;20458;-59
2023/02/03 10:05:22;;;;;;;46.63;7.10;;;;;;;5.21;100.00;101150.94;7388480;19;20500;-58
2023/02/03 10:07:58;;;;;;;44.87;6.60;;;;;;;5.25;100.00;101157.16;7392288;19;20446;-56
2023/02/03 10:10:36;;;;;;;38.53;7.97;;;;;;;5.26;100.00;101185.44;7392842;19;20420;-57
2023/02/03 10:13:29;;;;;;;37.33;6.57;;;;;;;5.29;100.00;101188.97;7396379;19;20409;-57
2023/02/03 10:16:24;;;;;;;46.30;8.10;;;;;;;5.30;100.00;101199.31;7387548;19;20433;-56
2023/02/03 10:18:56;;;;;;;35.33;6.93;;;;;;;5.31;100.00;101189.97;7396529;19;20410;-56
2023/02/03 10:21:35;;;;;;;44.47;6.30;;;;;;;5.34;100.00;101192.75;7390867;19;20444;-58
2023/02/03 10:24:06;;;;;;;48.63;5.77;;;;;;;5.32;100.00;101215.66;7394617;19;20411;-55
2023/02/03 10:26:35;;;;;;;43.83;5.87;;;;;;;5.36;100.00;101219.31;7389771;19;20486;-52
2023/02/03 10:29:08;;;;;;;44.47;7.50;;;;;;;5.39;100.00;101215.31;7393093;19;20410;-54
2023/02/03 10:31:40;;;;;;;49.10;7.33;;;;;;;5.40;100.00;101240.09;7392233;19;20464;-54
2023/02/03 10:34:12;;;;;;;42.87;6.40;;;;;;;5.40;100.00;101217.06;7395527;19;20776;-54
2023/02/03 10:36:50;;;;;;;32.67;6.00;;;;;;;5.46;100.00;101231.09;7388916;19;20518;-53
2023/02/03 10:39:30;;;;;;;49.47;6.80;;;;;;;5.41;100.00;101235.91;7395980;19;20969;-53
2023/02/03 10:42:00;;;;;;;40.40;7.20;;;;;;;5.40;100.00;101242.66;7391285;19;20481;-59
2023/02/03 10:44:37;;;;;;;52.30;9.43;;;;;;;5.39;100.00;101234.91;7394416;19;20410;-55
2023/02/03 10:47:23;;;;;;;32.43;6.57;;;;;;;5.37;100.00;101241.56;7387725;19;20950;-58
2023/02/03 10:49:53;;;;;;;58.03;8.33;;;;;;;5.36;100.00;101240.69;7392909;19;20396;-54
2023/02/03 10:52:28;;;;;;;51.07;8.17;;;;;;;5.39;100.00;101252.81;7389200;19;20450;-58
2023/02/03 10:54:58;;;;;;;43.73;5.90;;;;;;;5.36;100.00;101261.16;7390813;19;20935;-58
2023/02/03 10:57:30;;;;;;;62.90;13.20;;;;;;;5.39;100.00;101275.84;7387014;19;20437;-55
2023/02/03 11:00:22;;;;;;;40.10;6.07;;;;;;;5.39;100.00;101275.84;7394249;19;20408;-53
2023/02/03 11:03:22;;;;;;;48.17;6.27;;;;;;;5.45;100.00;101273.72;7387309;19;20442;-55
2023/02/03 11:06:05;;;;;;;48.57;8.57;;;;;;;5.42;100.00;101286.28;7392157;19;20408;-52
2023/02/03 11:08:36;;;;;;;36.67;5.30;;;;;;;5.37;100.00;101274.84;7388338;19;20573;-54
2023/02/03 11:11:07;;;;;;;40.97;7.63;;;;;;;5.39;100.00;101260.50;7394600;19;20968;-58
2023/02/03 11:13:37;;;;;;;36.87;5.63;;;;;;;5.43;100.00;101262.47;7388244;19;21012;-53
2023/02/03 11:16:08;;;;;;;38.07;7.23;;;;;;;5.48;100.00;101260.25;7392913;19;20476;-57
2023/02/03 11:18:43;;;;;;;41.70;5.77;;;;;;;5.53;100.00;101264.00;7390203;19;20440;-57
2023/02/03 11:21:18;;;;;;;51.13;6.03;;;;;;;5.63;100.00;101250.19;7394279;19;20389;-59
2023/02/03 11:23:51;;;;;;;33.90;4.83;;;;;;;5.64;100.00;101252.00;7390801;19;20468;-57
2023/02/03 11:26:23;;;;;;;37.07;5.93;;;;;;;5.61;100.00;101272.25;7392435;19;20443;-51
2023/02/03 11:28:54;;;;;;;33.43;6.90;;;;;;;5.63;100.00;101269.00;7390413;19;20450;-57
2023/02/03 11:31:25;;;;;;;46.83;6.70;;;;;;;5.66;100.00;101270.91;7392430;19;20970;-56
2023/02/03 11:34:00;;;;;;;36.37;6.30;;;;;;;5.64;100.00;101262.22;7392354;19;20448;-52
2023/02/03 11:36:32;;;;;;;38.80;5.70;;;;;;;5.60;100.00;101258.56;7389153;19;20790;-56
2023/02/03 11:39:19;;;;;;;38.07;6.33;;;;;;;5.65;100.00;101274.25;7392544;19;20398;-59
2023/02/03 11:41:49;;;;;;;45.63;6.10;;;;;;;5.69;100.00;101260.84;7388960;19;20441;-57
2023/02/03 11:44:22;;;;;;;42.93;7.37;;;;;;;5.65;100.00;101257.19;7393903;19;20399;-55
2023/02/03 11:46:55;;;;;;;30.07;6.40;;;;;;;5.63;100.00;101238.28;7387249;19;20409;-57